sensor_id;sensor_type;location;lat;lon;timestamp;pressure;altitude;pressure_sealevel;temperature
82780;BMP280;72511;45.120;20.720;2023-09-18T00:01:47;100668.66;;;18.50
82780;BMP280;72511;45.120;20.720;2023-09-18T00:11:48;100673.69;;;18.43
82780;BMP280;72511;45.120;20.720;2023-09-18T00:21:48;100670.09;;;18.37
82780;BMP280;72511;45.120;20.720;2023-09-18T00:31:49;100659.50;;;18.30
82780;BMP280;72511;45.120;20.720;2023-09-18T00:41:50;100657.56;;;18.22
82780;BMP280;72511;45.120;20.720;2023-09-18T00:51:51;100657.81;;;18.09
82780;BMP280;72511;45.120;20.720;2023-09-18T01:01:52;100652.56;;;17.97
82780;BMP280;72511;45.120;20.720;2023-09-18T01:22:24;100643.53;;;17.82
82780;BMP280;72511;45.120;20.720;2023-09-18T01:32:28;100648.25;;;17.81
82780;BMP280;72511;45.120;20.720;2023-09-18T01:42:29;100634.31;;;17.70
82780;BMP280;72511;45.120;20.720;2023-09-18T01:52:30;100649.97;;;17.70
82780;BMP280;72511;45.120;20.720;2023-09-18T02:02:30;100648.31;;;17.63
82780;BMP280;72511;45.120;20.720;2023-09-18T02:12:31;100643.03;;;17.60
82780;BMP280;72511;45.120;20.720;2023-09-18T02:22:35;100640.50;;;17.47
82780;BMP280;72511;45.120;20.720;2023-09-18T02:32:36;100641.56;;;17.41
82780;BMP280;72511;45.120;20.720;2023-09-18T02:42:37;100647.97;;;17.38
82780;BMP280;72511;45.120;20.720;2023-09-18T02:52:37;100647.66;;;17.36
82780;BMP280;72511;45.120;20.720;2023-09-18T03:02:38;100646.78;;;17.30
82780;BMP280;72511;45.120;20.720;2023-09-18T03:12:40;100656.25;;;17.52
82780;BMP280;72511;45.120;20.720;2023-09-18T03:22:41;100659.09;;;17.67
82780;BMP280;72511;45.120;20.720;2023-09-18T03:32:42;100643.09;;;17.74
82780;BMP280;72511;45.120;20.720;2023-09-18T03:42:44;100650.06;;;17.84
82780;BMP280;72511;45.120;20.720;2023-09-18T03:52:45;100656.47;;;17.81
82780;BMP280;72511;45.120;20.720;2023-09-18T04:02:46;100649.00;;;17.82
82780;BMP280;72511;45.120;20.720;2023-09-18T04:12:47;100634.09;;;17.74
82780;BMP280;72511;45.120;20.720;2023-09-18T04:22:47;100651.09;;;17.87
82780;BMP280;72511;45.120;20.720;2023-09-18T04:32:48;100640.38;;;17.98
82780;BMP280;72511;45.120;20.720;2023-09-18T04:42:49;100660.50;;;18.18
82780;BMP280;72511;45.120;20.720;2023-09-18T04:52:52;100649.34;;;18.45
82780;BMP280;72511;45.120;20.720;2023-09-18T05:02:53;100645.50;;;18.66
82780;BMP280;72511;45.120;20.720;2023-09-18T05:12:53;100638.44;;;18.88
82780;BMP280;72511;45.120;20.720;2023-09-18T05:22:55;100635.78;;;19.23
82780;BMP280;72511;45.120;20.720;2023-09-18T05:32:57;100623.66;;;19.98
82780;BMP280;72511;45.120;20.720;2023-09-18T05:42:58;100632.41;;;23.12
82780;BMP280;72511;45.120;20.720;2023-09-18T05:52:59;100626.53;;;24.75
82780;BMP280;72511;45.120;20.720;2023-09-18T06:03:00;100628.44;;;25.57
82780;BMP280;72511;45.120;20.720;2023-09-18T06:13:00;100609.44;;;26.17
82780;BMP280;72511;45.120;20.720;2023-09-18T06:23:01;100632.16;;;26.91
82780;BMP280;72511;45.120;20.720;2023-09-18T06:33:02;100618.88;;;27.36
82780;BMP280;72511;45.120;20.720;2023-09-18T06:43:02;100605.75;;;27.83
82780;BMP280;72511;45.120;20.720;2023-09-18T06:53:03;100606.50;;;28.04
82780;BMP280;72511;45.120;20.720;2023-09-18T07:03:04;100613.00;;;28.27
82780;BMP280;72511;45.120;20.720;2023-09-18T07:13:05;100594.91;;;28.33
82780;BMP280;72511;45.120;20.720;2023-09-18T07:23:06;100606.31;;;29.49
82780;BMP280;72511;45.120;20.720;2023-09-18T07:33:06;100627.09;;;30.05
82780;BMP280;72511;45.120;20.720;2023-09-18T07:43:07;100623.16;;;30.31
82780;BMP280;72511;45.120;20.720;2023-09-18T07:53:08;100598.97;;;30.41
82780;BMP280;72511;45.120;20.720;2023-09-18T08:03:08;100589.78;;;30.70
82780;BMP280;72511;45.120;20.720;2023-09-18T08:13:09;100577.63;;;30.90
82780;BMP280;72511;45.120;20.720;2023-09-18T08:23:10;100584.31;;;31.58
82780;BMP280;72511;45.120;20.720;2023-09-18T08:33:11;100585.91;;;31.44
82780;BMP280;72511;45.120;20.720;2023-09-18T08:43:14;100578.56;;;31.24
82780;BMP280;72511;45.120;20.720;2023-09-18T08:53:16;100572.19;;;30.92
82780;BMP280;72511;45.120;20.720;2023-09-18T09:03:16;100580.16;;;29.96
82780;BMP280;72511;45.120;20.720;2023-09-18T09:13:17;100561.88;;;29.51
82780;BMP280;72511;45.120;20.720;2023-09-18T09:23:17;100574.50;;;29.01
82780;BMP280;72511;45.120;20.720;2023-09-18T09:33:18;100577.88;;;29.00
82780;BMP280;72511;45.120;20.720;2023-09-18T09:43:19;100549.41;;;28.94
82780;BMP280;72511;45.120;20.720;2023-09-18T09:53:41;100530.50;;;29.00
82780;BMP280;72511;45.120;20.720;2023-09-18T10:03:42;100528.41;;;29.43
82780;BMP280;72511;45.120;20.720;2023-09-18T10:13:59;100510.59;;;29.61
82780;BMP280;72511;45.120;20.720;2023-09-18T10:34:10;100501.19;;;29.21
82780;BMP280;72511;45.120;20.720;2023-09-18T10:44:13;100493.47;;;29.50
82780;BMP280;72511;45.120;20.720;2023-09-18T10:54:15;100486.03;;;29.89
82780;BMP280;72511;45.120;20.720;2023-09-18T11:04:20;100467.06;;;29.95
82780;BMP280;72511;45.120;20.720;2023-09-18T11:14:21;100468.22;;;29.85
82780;BMP280;72511;45.120;20.720;2023-09-18T11:24:21;100458.88;;;29.75
82780;BMP280;72511;45.120;20.720;2023-09-18T11:34:24;100443.41;;;30.11
82780;BMP280;72511;45.120;20.720;2023-09-18T11:54:28;100444.13;;;30.66
82780;BMP280;72511;45.120;20.720;2023-09-18T12:04:29;100432.34;;;30.43
82780;BMP280;72511;45.120;20.720;2023-09-18T12:14:31;100435.00;;;30.73
82780;BMP280;72511;45.120;20.720;2023-09-18T12:24:32;100441.81;;;31.19
82780;BMP280;72511;45.120;20.720;2023-09-18T12:34:32;100426.16;;;30.84
82780;BMP280;72511;45.120;20.720;2023-09-18T12:44:33;100427.53;;;30.36
82780;BMP280;72511;45.120;20.720;2023-09-18T12:54:43;100422.78;;;30.54
82780;BMP280;72511;45.120;20.720;2023-09-18T13:04:55;100407.75;;;30.42
82780;BMP280;72511;45.120;20.720;2023-09-18T13:15:03;100403.63;;;30.11
82780;BMP280;72511;45.120;20.720;2023-09-18T13:25:04;100407.13;;;30.11
82780;BMP280;72511;45.120;20.720;2023-09-18T13:35:05;100391.53;;;29.93
82780;BMP280;72511;45.120;20.720;2023-09-18T13:45:07;100373.53;;;29.87
82780;BMP280;72511;45.120;20.720;2023-09-18T13:55:08;100368.50;;;29.78
82780;BMP280;72511;45.120;20.720;2023-09-18T14:05:09;100351.09;;;29.33
82780;BMP280;72511;45.120;20.720;2023-09-18T14:15:10;100357.41;;;29.11
82780;BMP280;72511;45.120;20.720;2023-09-18T14:25:11;100354.59;;;29.11
82780;BMP280;72511;45.120;20.720;2023-09-18T14:35:11;100345.84;;;28.84
82780;BMP280;72511;45.120;20.720;2023-09-18T14:45:12;100319.31;;;28.26
82780;BMP280;72511;45.120;20.720;2023-09-18T14:55:13;100335.44;;;28.20
82780;BMP280;72511;45.120;20.720;2023-09-18T15:05:15;100344.66;;;27.79
82780;BMP280;72511;45.120;20.720;2023-09-18T15:15:16;100360.03;;;27.52
82780;BMP280;72511;45.120;20.720;2023-09-18T15:25:16;100365.06;;;27.33
82780;BMP280;72511;45.120;20.720;2023-09-18T15:35:17;100366.22;;;27.38
82780;BMP280;72511;45.120;20.720;2023-09-18T15:45:18;100350.63;;;27.01
82780;BMP280;72511;45.120;20.720;2023-09-18T15:55:18;100341.03;;;26.82
82780;BMP280;72511;45.120;20.720;2023-09-18T16:05:19;100344.09;;;26.45
82780;BMP280;72511;45.120;20.720;2023-09-18T16:15:19;100331.97;;;25.96
82780;BMP280;72511;45.120;20.720;2023-09-18T16:25:20;100321.66;;;25.52
82780;BMP280;72511;45.120;20.720;2023-09-18T16:35:20;100332.63;;;25.14
82780;BMP280;72511;45.120;20.720;2023-09-18T16:45:21;100331.09;;;24.81
82780;BMP280;72511;45.120;20.720;2023-09-18T16:55:22;100328.44;;;24.52
82780;BMP280;72511;45.120;20.720;2023-09-18T17:05:22;100342.81;;;24.26
82780;BMP280;72511;45.120;20.720;2023-09-18T17:15:23;100329.25;;;24.04
82780;BMP280;72511;45.120;20.720;2023-09-18T17:25:23;100332.66;;;23.86
82780;BMP280;72511;45.120;20.720;2023-09-18T17:35:24;100329.81;;;23.68
82780;BMP280;72511;45.120;20.720;2023-09-18T17:45:24;100334.91;;;23.58
82780;BMP280;72511;45.120;20.720;2023-09-18T17:55:25;100325.75;;;23.45
82780;BMP280;72511;45.120;20.720;2023-09-18T18:05:25;100328.53;;;23.40
82780;BMP280;72511;45.120;20.720;2023-09-18T18:15:26;100333.28;;;23.45
82780;BMP280;72511;45.120;20.720;2023-09-18T18:25:26;100324.00;;;23.42
82780;BMP280;72511;45.120;20.720;2023-09-18T18:35:27;100348.84;;;23.48
82780;BMP280;72511;45.120;20.720;2023-09-18T18:45:27;100333.28;;;23.45
82780;BMP280;72511;45.120;20.720;2023-09-18T18:55:28;100331.16;;;23.27
82780;BMP280;72511;45.120;20.720;2023-09-18T19:05:28;100332.19;;;23.24
82780;BMP280;72511;45.120;20.720;2023-09-18T19:15:29;100331.91;;;23.22
82780;BMP280;72511;45.120;20.720;2023-09-18T19:25:30;100333.22;;;23.21
82780;BMP280;72511;45.120;20.720;2023-09-18T19:35:31;100309.72;;;23.03
82780;BMP280;72511;45.120;20.720;2023-09-18T19:45:31;100326.47;;;23.16
82780;BMP280;72511;45.120;20.720;2023-09-18T19:55:32;100306.38;;;23.16
82780;BMP280;72511;45.120;20.720;2023-09-18T20:05:33;100314.44;;;23.14
82780;BMP280;72511;45.120;20.720;2023-09-18T20:15:33;100325.69;;;23.16
82780;BMP280;72511;45.120;20.720;2023-09-18T20:25:35;100309.47;;;23.07
82780;BMP280;72511;45.120;20.720;2023-09-18T20:35:37;100320.22;;;23.10
82780;BMP280;72511;45.120;20.720;2023-09-18T20:45:37;100317.78;;;23.01
82780;BMP280;72511;45.120;20.720;2023-09-18T20:55:38;100295.00;;;22.90
82780;BMP280;72511;45.120;20.720;2023-09-18T21:05:40;100302.25;;;22.93
82780;BMP280;72511;45.120;20.720;2023-09-18T21:15:40;100286.97;;;22.86
82780;BMP280;72511;45.120;20.720;2023-09-18T21:25:41;100273.56;;;22.66
82780;BMP280;72511;45.120;20.720;2023-09-18T21:35:41;100284.38;;;22.59
82780;BMP280;72511;45.120;20.720;2023-09-18T21:45:42;100283.69;;;22.47
82780;BMP280;72511;45.120;20.720;2023-09-18T21:55:43;100298.97;;;22.37
82780;BMP280;72511;45.120;20.720;2023-09-18T22:05:44;100281.72;;;22.37
82780;BMP280;72511;45.120;20.720;2023-09-18T22:15:44;100282.97;;;22.30
82780;BMP280;72511;45.120;20.720;2023-09-18T22:25:45;100290.22;;;22.39
82780;BMP280;72511;45.120;20.720;2023-09-18T22:35:45;100254.56;;;21.84
82780;BMP280;72511;45.120;20.720;2023-09-18T22:56:24;100279.06;;;21.93
82780;BMP280;72511;45.120;20.720;2023-09-18T23:06:25;100287.59;;;21.95
82780;BMP280;72511;45.120;20.720;2023-09-18T23:16:26;100303.34;;;22.05
82780;BMP280;72511;45.120;20.720;2023-09-18T23:26:26;100291.13;;;21.95
82780;BMP280;72511;45.120;20.720;2023-09-18T23:36:27;100272.06;;;21.92
82780;BMP280;72511;45.120;20.720;2023-09-18T23:46:27;100235.00;;;21.82
82780;BMP280;72511;45.120;20.720;2023-09-18T23:56:28;100230.25;;;21.77
